createdAt,value
2022-08-03T00:00:56.060Z,99430.84
2022-08-03T00:04:00.339Z,99434.81
2022-08-03T00:06:54.572Z,99424.84
2022-08-03T00:09:52.350Z,99441.81
2022-08-03T00:12:47.224Z,99444.56
2022-08-03T00:15:42.502Z,99451.50
2022-08-03T00:18:37.042Z,99449.75
2022-08-03T00:21:42.132Z,99433.03
2022-08-03T00:24:09.965Z,99445.03
2022-08-03T00:26:38.155Z,99444.53
2022-08-03T00:29:24.466Z,99461.25
2022-08-03T00:32:21.638Z,99460.50
2022-08-03T00:35:29.352Z,99450.50
2022-08-03T00:38:39.658Z,99451.25
2022-08-03T00:41:36.671Z,99461.00
2022-08-03T00:44:36.855Z,99461.75
2022-08-03T00:51:20.707Z,99464.97
2022-08-03T01:01:01.124Z,99464.44
2022-08-03T01:03:55.828Z,99450.22
2022-08-03T01:14:04.760Z,99467.19
2022-08-03T01:17:22.238Z,99451.25
2022-08-03T01:20:25.166Z,99450.00
2022-08-03T01:23:52.388Z,99462.22
2022-08-03T01:27:02.598Z,99458.78
2022-08-03T01:30:13.976Z,99464.75
2022-08-03T01:33:23.539Z,99449.28
2022-08-03T01:36:23.249Z,99447.28
2022-08-03T01:39:21.352Z,99469.25
2022-08-03T01:42:24.601Z,99468.47
2022-08-03T01:45:55.996Z,99465.53
2022-08-03T01:49:01.141Z,99459.03
2022-08-03T01:55:28.943Z,99464.53
2022-08-03T01:58:53.013Z,99467.78
2022-08-03T02:02:29.075Z,99477.00
2022-08-03T02:05:21.345Z,99457.78
2022-08-03T02:08:17.176Z,99462.78
2022-08-03T02:11:15.729Z,99454.56
2022-08-03T02:14:13.097Z,99457.75
2022-08-03T02:17:10.039Z,99460.53
2022-08-03T02:20:11.041Z,99461.53
2022-08-03T02:23:08.161Z,99446.06
2022-08-03T02:26:14.002Z,99469.00
2022-08-03T02:29:12.590Z,99476.97
2022-08-03T02:32:10.154Z,99462.50
2022-08-03T02:38:38.496Z,99466.50
2022-08-03T02:41:37.026Z,99468.00
2022-08-03T02:44:35.499Z,99480.19
2022-08-03T02:47:54.047Z,99479.72
2022-08-03T02:50:52.167Z,99485.94
2022-08-03T02:54:23.223Z,99492.16
2022-08-03T02:57:22.920Z,99480.72
2022-08-03T03:00:47.767Z,99489.69
2022-08-03T03:03:47.065Z,99491.44
2022-08-03T03:06:45.131Z,99484.44
2022-08-03T03:09:45.351Z,99478.72
2022-08-03T03:12:39.710Z,99461.75
2022-08-03T03:18:55.404Z,99499.88
2022-08-03T03:21:50.581Z,99495.63
2022-08-03T03:24:47.577Z,99483.16
2022-08-03T03:27:43.024Z,99494.88
2022-08-03T03:30:44.991Z,99493.88
2022-08-03T03:33:56.492Z,99502.38
2022-08-03T03:36:50.692Z,99486.91
2022-08-03T03:39:48.788Z,99488.91
2022-08-03T03:46:09.073Z,99472.47
2022-08-03T03:49:04.584Z,99478.94
2022-08-03T03:52:04.491Z,99506.09
2022-08-03T03:55:01.045Z,99509.88
2022-08-03T03:57:57.219Z,99512.81
2022-08-03T04:01:06.370Z,99508.03
2022-08-03T04:04:15.818Z,99505.84
2022-08-03T04:07:42.174Z,99506.31
2022-08-03T04:10:55.764Z,99488.88
2022-08-03T04:14:01.977Z,99520.47
2022-08-03T04:17:04.501Z,99503.31
2022-08-03T04:20:07.901Z,99505.25
2022-08-03T04:23:29.804Z,99490.81
2022-08-03T04:26:26.162Z,99518.38
2022-08-03T04:32:45.493Z,99521.81
2022-08-03T04:36:00.920Z,99525.81
2022-08-03T04:39:17.761Z,99530.75
2022-08-03T04:42:20.237Z,99507.78
2022-08-03T04:48:24.051Z,99509.84
2022-08-03T04:51:26.651Z,99518.19
2022-08-03T04:54:32.814Z,99498.41
2022-08-03T04:58:09.483Z,99533.19
2022-08-03T05:01:13.040Z,99530.34
2022-08-03T05:07:50.656Z,99523.25
2022-08-03T05:10:53.904Z,99535.78
2022-08-03T05:17:10.445Z,99529.16
2022-08-03T05:20:19.098Z,99538.53
2022-08-03T05:23:18.217Z,99511.31
2022-08-03T05:26:13.132Z,99512.50
2022-08-03T05:29:07.501Z,99538.09
2022-08-03T05:32:08.335Z,99529.84
2022-08-03T05:35:56.847Z,99544.25
2022-08-03T05:38:28.327Z,99541.97
2022-08-03T05:41:42.358Z,99534.38
2022-08-03T05:47:55.920Z,99549.22
2022-08-03T05:50:51.188Z,99518.66
2022-08-03T05:53:46.736Z,99536.47
2022-08-03T05:56:41.301Z,99545.44
2022-08-03T05:59:39.713Z,99537.44
2022-08-03T06:02:56.043Z,99558.97
2022-08-03T06:05:59.952Z,99558.78
2022-08-03T06:08:55.852Z,99549.53
2022-08-03T06:15:02.753Z,99557.06
2022-08-03T06:18:01.983Z,99557.91
2022-08-03T06:20:56.981Z,99551.47
2022-08-03T06:24:02.535Z,99558.88
2022-08-03T06:30:47.156Z,99540.69
2022-08-03T06:34:32.770Z,99530.03
2022-08-03T06:40:13.763Z,99547.47
2022-08-03T06:43:14.175Z,99560.50
2022-08-03T06:46:12.299Z,99558.81
2022-08-03T06:49:07.159Z,99552.09
2022-08-03T06:52:03.329Z,99561.94
2022-08-03T06:58:56.206Z,99530.44
2022-08-03T07:02:03.400Z,99549.53
2022-08-03T07:05:25.997Z,99561.41
2022-08-03T07:08:33.864Z,99541.34
2022-08-03T07:11:28.892Z,99560.59
2022-08-03T07:14:31.450Z,99546.72
2022-08-03T07:17:38.086Z,99523.63
2022-08-03T07:20:46.031Z,99540.66
2022-08-03T07:23:45.615Z,99539.25
2022-08-03T07:30:23.471Z,99543.44
2022-08-03T07:33:30.667Z,99548.66
2022-08-03T07:39:32.693Z,99544.78
2022-08-03T08:00:01.683Z,99535.09
2022-08-03T08:14:40.281Z,99551.44
2022-08-03T08:46:06.413Z,99542.72
2022-08-03T08:49:06.803Z,99555.63
2022-08-03T08:55:16.870Z,99536.91
2022-08-03T08:58:13.530Z,99565.47
2022-08-03T09:01:24.865Z,99545.31
2022-08-03T09:26:25.878Z,99550.97
2022-08-03T09:29:27.638Z,99558.44
2022-08-03T09:32:46.437Z,99560.72
2022-08-03T10:57:28.923Z,99547.16
2022-08-03T11:00:27.884Z,99573.72
2022-08-03T11:28:47.071Z,99542.19
2022-08-03T11:35:30.431Z,99547.72
2022-08-03T11:38:38.388Z,99564.44
2022-08-03T11:41:50.343Z,99553.00
2022-08-03T11:52:28.904Z,99531.34
2022-08-03T11:59:26.915Z,99551.56
2022-08-03T12:47:56.949Z,99539.06
2022-08-03T12:50:37.805Z,99532.09
2022-08-03T13:00:47.397Z,99563.56
2022-08-03T13:07:35.117Z,99549.69
2022-08-03T13:14:20.044Z,99532.97
2022-08-03T13:17:18.188Z,99545.03
2022-08-03T13:20:15.551Z,99558.38
2022-08-03T13:26:21.580Z,99548.19
2022-08-03T13:29:24.994Z,99534.91
2022-08-03T14:11:06.154Z,99531.00
2022-08-03T14:21:23.978Z,99526.66
2022-08-03T14:24:20.059Z,99544.56
2022-08-03T14:30:56.552Z,99551.84
2022-08-03T14:33:52.773Z,99557.97
2022-08-03T14:36:47.882Z,99522.94
2022-08-03T14:39:59.979Z,99542.63
2022-08-03T14:46:29.113Z,99525.50
2022-08-03T14:50:30.974Z,99547.38
2022-08-03T14:52:48.231Z,99523.94
2022-08-03T14:59:15.029Z,99526.16
2022-08-03T15:12:02.125Z,99545.66
2022-08-03T15:15:16.175Z,99543.63
2022-08-03T15:18:14.507Z,99552.94
2022-08-03T15:21:16.607Z,99560.50
2022-08-03T15:28:03.808Z,99547.06
2022-08-03T15:34:53.479Z,99554.00
2022-08-03T15:37:48.730Z,99541.31
2022-08-03T15:40:45.715Z,99545.50
2022-08-03T15:43:54.589Z,99531.81
2022-08-03T15:46:49.042Z,99541.75
2022-08-03T15:49:43.364Z,99537.97
2022-08-03T15:52:42.120Z,99529.63
2022-08-03T15:55:55.742Z,99549.03
2022-08-03T15:59:10.143Z,99548.91
2022-08-03T16:02:13.670Z,99519.63
2022-08-03T16:05:31.165Z,99539.19
2022-08-03T16:16:25.640Z,99553.44
2022-08-03T16:27:56.745Z,99544.75
2022-08-03T16:34:36.634Z,99520.28
2022-08-03T16:37:50.595Z,99543.94
2022-08-03T16:44:17.131Z,99571.91
2022-08-03T16:47:27.110Z,99568.50
2022-08-03T16:50:53.140Z,99574.88
2022-08-03T16:54:41.877Z,99582.09
2022-08-03T17:04:50.413Z,99598.66
2022-08-03T17:07:54.018Z,99564.41
2022-08-03T17:10:50.628Z,99560.69
2022-08-03T19:28:52.547Z,99623.84
2022-08-03T20:09:10.461Z,99598.50
2022-08-03T20:26:31.986Z,99629.41
2022-08-03T20:33:53.430Z,99639.25
2022-08-03T20:36:50.176Z,99623.69
2022-08-03T20:39:55.962Z,99627.56
2022-08-03T21:11:41.415Z,99608.75
2022-08-03T21:24:33.995Z,99650.81
2022-08-03T21:27:34.427Z,99633.22
2022-08-03T21:30:43.974Z,99643.13
2022-08-03T21:37:16.758Z,99664.13
2022-08-03T21:40:16.904Z,99656.13
2022-08-03T21:47:16.391Z,99651.94
2022-08-03T21:50:39.212Z,99656.47
2022-08-03T21:57:43.043Z,99661.47
2022-08-03T22:04:34.368Z,99664.50
2022-08-03T22:17:55.146Z,99640.31
2022-08-03T22:40:55.442Z,99635.16
2022-08-03T22:43:59.074Z,99665.81
2022-08-03T22:47:04.243Z,99653.13
2022-08-03T22:50:31.191Z,99659.59
2022-08-03T22:59:40.124Z,99636.47
2022-08-03T23:06:02.233Z,99656.25
2022-08-03T23:12:51.016Z,99666.22
2022-08-03T23:19:17.334Z,99652.03
2022-08-03T23:22:30.664Z,99649.28
2022-08-03T23:25:31.938Z,99646.75
2022-08-03T23:31:48.262Z,99666.22
2022-08-03T23:35:08.424Z,99654.53
2022-08-03T23:41:22.768Z,99641.03
2022-08-03T23:44:19.361Z,99663.72
2022-08-03T23:47:22.436Z,99636.78
2022-08-03T23:50:27.677Z,99672.94
2022-08-03T23:57:20.498Z,99680.94
